KVBG Airport Information

Runway Information
Runway 12 Length 15000 ft width 200 ft
Elevation 238 ft Threshold 0 ft Heading 137
Runway 30 Length 15000 ft Width 200 ft
Elevation 369 ft Threshold 0 ft Heading 317
Airport Frequencies
Type A/D Name SANTA BARB Frequency 124.15 MHZ
Type ACP Name COMD POST Frequency 31.1 MHZ
Type ATIS Name ATIS Frequency 133.125 MHZ
Type CTAF Name CTAF Frequency 124.95 MHZ
Type GCCD Name GND/CLNC D Frequency 121.75 MHZ
Type MISC Name RANGE CON Frequency 121.4 MHZ
Type PMSV Name PMSV METRO Frequency 34.24 MHZ
Type PTD Name PTD Frequency 126.2 MHZ
Type TWR Name TWR Frequency 124.95 MHZ
Airport Navaids
Type TACAN Name Vandenberg Frequency 112250 KHZ
Airport Weather Information & NOTAM
ADDS - METARS form results

(0446 UTC 18 January 2022)
Data provider http://aviationweather.gov/metar/data/
 
METAR text: KVBG 180410Z AUTO 26003KT 9SM FEW065 OVC085 12/11 A3007 RMK AO2 RAE10 SLP186
Conditions at: KVBG (VANDENBERG AFB , CA, US) observed 0410 UTC 18 January 2022
Temperature: 12.0°C (54°F)
Dewpoint: 11.0°C (52°F) [RH = 94%]
Pressure (altimeter): 30.07 inches Hg (1018.4 mb)
[Sea-level pressure: 1018.6 mb]
Winds: from the W (260 degrees) at 3 MPH (3 knots; 1.5 m/s)
Visibility: 9 miles (14 km)
Ceiling: 8500 feet AGL
Clouds: few clouds at 6500 feet AGL
overcast cloud deck at 8500 feet AGL
Weather: automated observation with no human augmentation;
there may or may not be significant weather present at this time

METAR text: KVBG 180358Z AUTO 00000KT 8SM -RA SCT060 OVC080 12/12 A3007 RMK AO2 SLP186 P0003 T01220115 $
Conditions at: KVBG (VANDENBERG AFB , CA, US) observed 0358 UTC 18 January 2022
Temperature: 12.2°C (54°F)
Dewpoint: 11.5°C (53°F) [RH = 95%]
Pressure (altimeter): 30.07 inches Hg (1018.4 mb)
[Sea-level pressure: 1018.6 mb]
Winds: calm
Visibility: 8 miles (13 km)
Ceiling: 8000 feet AGL
Clouds: scattered clouds at 6000 feet AGL
overcast cloud deck at 8000 feet AGL
Weather: -RA  (light rain)
SOME DATA ABOVE MAY BE INACCURATE!!!
"$" is an indication the sensor requires maintenance